createdAt,value
2024-04-17T00:00:07.115Z,5.58
2024-04-17T00:02:39.074Z,5.63
2024-04-17T00:05:12.546Z,5.66
2024-04-17T00:07:44.451Z,5.69
2024-04-17T00:10:16.371Z,5.73
2024-04-17T00:12:48.023Z,5.74
2024-04-17T00:15:19.717Z,5.76
2024-04-17T00:17:51.715Z,5.78
2024-04-17T00:20:23.601Z,5.80
2024-04-17T00:22:55.398Z,5.83
2024-04-17T00:25:27.040Z,5.85
2024-04-17T00:27:58.469Z,5.87
2024-04-17T00:30:30.093Z,5.89
2024-04-17T00:33:02.024Z,5.90
2024-04-17T00:35:33.783Z,5.89
2024-04-17T00:38:05.512Z,5.92
2024-04-17T00:40:37.419Z,5.94
2024-04-17T00:43:09.373Z,5.95
2024-04-17T00:45:43.760Z,5.99
2024-04-17T00:48:16.804Z,6.01
2024-04-17T00:50:52.124Z,6.03
2024-04-17T00:53:29.683Z,6.06
2024-04-17T00:56:03.303Z,6.09
2024-04-17T00:58:35.428Z,6.10
2024-04-17T01:01:07.371Z,6.11
2024-04-17T01:03:39.243Z,6.10
2024-04-17T01:06:12.040Z,6.11
2024-04-17T01:08:44.727Z,6.08
2024-04-17T01:11:17.304Z,6.07
2024-04-17T01:13:50.141Z,6.06
2024-04-17T01:16:22.995Z,6.03
2024-04-17T01:18:56.600Z,5.99
2024-04-17T01:21:28.940Z,5.97
2024-04-17T01:24:02.267Z,5.94
2024-04-17T01:26:35.522Z,5.92
2024-04-17T01:29:07.812Z,5.92
2024-04-17T01:31:40.470Z,5.90
2024-04-17T01:34:14.404Z,5.90
2024-04-17T01:36:46.385Z,5.91
2024-04-17T01:39:17.940Z,5.90
2024-04-17T01:41:49.530Z,5.88
2024-04-17T01:44:27.514Z,5.87
2024-04-17T01:47:02.414Z,5.86
2024-04-17T01:49:34.287Z,5.82
2024-04-17T01:52:06.435Z,5.81
2024-04-17T01:54:38.211Z,5.78
2024-04-17T01:57:09.940Z,5.77
2024-04-17T01:59:41.521Z,5.75
2024-04-17T02:02:13.191Z,5.73
2024-04-17T02:04:45.126Z,5.74
2024-04-17T02:07:16.928Z,5.72
2024-04-17T02:09:49.717Z,5.73
2024-04-17T02:12:21.359Z,5.75
2024-04-17T02:14:52.982Z,5.77
2024-04-17T02:17:24.646Z,5.74
2024-04-17T02:19:56.553Z,5.72
2024-04-17T02:22:28.453Z,5.70
2024-04-17T02:25:00.282Z,5.64
2024-04-17T02:27:32.001Z,5.61
2024-04-17T02:30:03.525Z,5.60
2024-04-17T02:32:35.186Z,5.57
2024-04-17T02:35:07.717Z,5.53
2024-04-17T02:37:39.288Z,5.51
2024-04-17T02:40:13.344Z,5.52
2024-04-17T02:42:45.094Z,5.53
2024-04-17T02:45:16.855Z,5.51
2024-04-17T02:47:48.562Z,5.46
2024-04-17T02:50:20.621Z,5.45
2024-04-17T02:52:52.293Z,5.42
2024-04-17T02:55:24.064Z,5.40
2024-04-17T02:57:55.845Z,5.39
2024-04-17T03:00:28.903Z,5.36
2024-04-17T03:03:05.329Z,5.34
2024-04-17T03:05:38.271Z,5.31
2024-04-17T03:08:10.234Z,5.29
2024-04-17T03:10:42.160Z,5.25
2024-04-17T03:13:13.727Z,5.23
2024-04-17T03:15:47.173Z,5.20
2024-04-17T03:18:19.144Z,5.17
2024-04-17T03:20:50.733Z,5.14
2024-04-17T03:23:22.382Z,5.14
2024-04-17T03:25:58.200Z,5.13
2024-04-17T03:28:31.309Z,5.13
2024-04-17T03:31:03.780Z,5.13
2024-04-17T03:33:35.455Z,5.16
2024-04-17T03:36:08.249Z,5.15
2024-04-17T03:38:39.813Z,5.17
2024-04-17T03:41:11.595Z,5.17
2024-04-17T03:43:43.615Z,5.16
2024-04-17T03:46:15.207Z,5.16
2024-04-17T03:48:46.839Z,5.16
2024-04-17T03:51:18.461Z,5.18
2024-04-17T03:53:51.770Z,5.18
2024-04-17T03:56:23.402Z,5.18
2024-04-17T03:58:55.210Z,5.13
2024-04-17T04:01:27.422Z,5.10
2024-04-17T04:03:59.134Z,5.04
2024-04-17T04:06:30.730Z,5.01
2024-04-17T04:09:02.236Z,4.95
2024-04-17T04:11:33.916Z,4.93
2024-04-17T04:14:06.076Z,4.91
2024-04-17T04:16:37.624Z,4.89
2024-04-17T04:19:09.135Z,4.88
2024-04-17T04:21:40.754Z,4.83
2024-04-17T04:24:12.493Z,4.80
2024-04-17T04:26:44.070Z,4.79
2024-04-17T04:29:16.293Z,4.79
2024-04-17T04:31:48.016Z,4.75
2024-04-17T04:34:19.687Z,4.70
2024-04-17T04:36:51.181Z,4.67
2024-04-17T04:39:22.655Z,4.56
2024-04-17T04:41:55.206Z,4.53
2024-04-17T04:44:26.743Z,4.51
2024-04-17T04:46:59.298Z,4.51
2024-04-17T04:49:31.080Z,4.53
2024-04-17T04:52:02.848Z,4.53
2024-04-17T04:54:34.532Z,4.54
2024-04-17T04:57:06.598Z,4.58
2024-04-17T04:59:38.598Z,4.63
2024-04-17T05:02:10.562Z,4.63
2024-04-17T05:04:43.208Z,4.62
2024-04-17T05:07:14.810Z,4.68
2024-04-17T05:09:46.643Z,4.71
2024-04-17T05:12:18.351Z,4.75
2024-04-17T05:14:50.435Z,4.79
2024-04-17T05:17:22.199Z,4.83
2024-04-17T05:19:54.037Z,4.87
2024-04-17T05:22:25.696Z,4.91
2024-04-17T05:24:57.385Z,4.91
2024-04-17T05:27:29.048Z,4.88
2024-04-17T05:30:00.980Z,4.89
2024-04-17T05:32:32.792Z,4.90
2024-04-17T05:35:04.966Z,4.92
2024-04-17T05:37:36.456Z,4.93
2024-04-17T05:40:09.662Z,4.94
2024-04-17T05:42:41.175Z,4.93
2024-04-17T05:45:13.118Z,4.92
2024-04-17T05:47:44.978Z,4.96
2024-04-17T05:50:17.046Z,4.98
2024-04-17T05:52:48.869Z,5.03
2024-04-17T05:55:21.019Z,5.03
2024-04-17T05:57:52.516Z,5.11
2024-04-17T06:00:24.451Z,5.18
2024-04-17T06:02:57.981Z,5.26
2024-04-17T06:05:30.840Z,5.42
2024-04-17T06:08:02.586Z,5.49
2024-04-17T06:10:34.713Z,5.59
2024-04-17T06:13:07.245Z,5.70
2024-04-17T06:15:38.831Z,5.81
2024-04-17T06:18:10.698Z,5.96
2024-04-17T06:20:44.160Z,6.10
2024-04-17T06:23:15.758Z,6.30
2024-04-17T06:25:49.120Z,6.50
2024-04-17T06:28:21.830Z,6.71
2024-04-17T06:30:53.570Z,6.85
2024-04-17T06:33:25.478Z,6.87
2024-04-17T06:35:57.590Z,6.74
2024-04-17T06:38:29.298Z,6.60
2024-04-17T06:41:01.749Z,6.48
2024-04-17T06:43:33.506Z,6.46
2024-04-17T06:46:05.297Z,6.49
2024-04-17T06:48:36.992Z,6.57
2024-04-17T06:51:08.838Z,6.80
2024-04-17T06:53:42.718Z,6.97
2024-04-17T06:56:15.369Z,7.14
2024-04-17T06:58:47.347Z,7.22
2024-04-17T07:01:19.572Z,7.13
2024-04-17T07:03:51.715Z,7.01
2024-04-17T07:06:23.708Z,6.92
2024-04-17T07:08:55.839Z,6.82
2024-04-17T07:11:28.431Z,6.70
2024-04-17T07:14:00.100Z,6.56
2024-04-17T07:16:32.126Z,6.42
2024-04-17T07:19:04.201Z,6.36
2024-04-17T07:21:35.986Z,6.36
2024-04-17T07:24:08.533Z,6.33
2024-04-17T07:26:40.610Z,6.34
2024-04-17T07:29:12.533Z,6.36
2024-04-17T07:31:44.482Z,6.44
2024-04-17T07:34:16.118Z,6.51
2024-04-17T07:36:49.536Z,6.79
2024-04-17T07:39:21.203Z,7.01
2024-04-17T07:41:53.008Z,7.10
2024-04-17T07:44:24.917Z,7.09
2024-04-17T07:46:56.713Z,7.10
2024-04-17T07:49:28.654Z,7.05
2024-04-17T07:52:00.255Z,7.03
2024-04-17T07:54:31.983Z,6.97
2024-04-17T07:57:03.603Z,6.99
2024-04-17T07:59:35.921Z,6.99
2024-04-17T08:02:08.579Z,7.00
2024-04-17T08:04:40.116Z,7.06
2024-04-17T08:07:11.830Z,7.26
2024-04-17T08:09:43.863Z,7.41
2024-04-17T08:12:15.819Z,7.41
2024-04-17T08:14:47.631Z,7.34
2024-04-17T08:17:19.493Z,7.29
2024-04-17T08:19:51.553Z,7.19
2024-04-17T08:22:23.559Z,7.08
2024-04-17T08:24:55.227Z,6.97
2024-04-17T08:27:26.800Z,6.95
2024-04-17T08:29:59.619Z,6.96
2024-04-17T08:32:32.294Z,6.95
2024-04-17T08:35:05.105Z,6.92
2024-04-17T08:37:37.949Z,6.89
2024-04-17T08:40:12.315Z,6.91
2024-04-17T08:42:50.106Z,6.91
2024-04-17T08:45:43.255Z,6.84
2024-04-17T08:48:20.953Z,6.89
2024-04-17T08:50:53.442Z,7.03
2024-04-17T08:53:27.395Z,7.19
2024-04-17T08:55:59.493Z,7.31
2024-04-17T08:58:32.125Z,7.36
2024-04-17T09:01:05.094Z,7.40
2024-04-17T09:03:38.246Z,7.45
2024-04-17T09:06:12.610Z,7.43
2024-04-17T09:08:45.097Z,7.42
2024-04-17T09:11:17.937Z,7.39
2024-04-17T09:13:49.668Z,7.38
2024-04-17T09:16:21.364Z,7.38
2024-04-17T09:18:53.404Z,7.34
2024-04-17T09:21:25.253Z,7.21
2024-04-17T09:23:57.071Z,7.14
2024-04-17T09:26:28.722Z,7.07
2024-04-17T09:29:00.687Z,7.01
2024-04-17T09:31:32.923Z,6.96
2024-04-17T09:34:07.011Z,6.96
2024-04-17T09:36:38.756Z,6.93
2024-04-17T09:39:11.682Z,6.98
2024-04-17T09:41:46.429Z,7.13
2024-04-17T09:44:23.180Z,7.51
2024-04-17T09:46:59.605Z,7.90
2024-04-17T09:49:32.197Z,8.28
2024-04-17T09:52:07.036Z,8.50
2024-04-17T09:54:39.590Z,8.57
2024-04-17T09:57:13.767Z,8.46
2024-04-17T09:59:48.380Z,8.34
2024-04-17T10:02:21.632Z,8.32
2024-04-17T10:04:55.485Z,8.27
2024-04-17T10:07:28.890Z,8.27
2024-04-17T10:10:01.662Z,8.21
2024-04-17T10:12:35.339Z,8.08
2024-04-17T10:15:09.798Z,7.96
2024-04-17T10:17:42.762Z,7.87
2024-04-17T10:20:28.925Z,7.81
2024-04-17T10:23:08.327Z,7.75
2024-04-17T10:25:52.134Z,7.75
2024-04-17T10:28:24.434Z,7.70
2024-04-17T10:30:57.675Z,7.67
2024-04-17T10:33:35.488Z,7.60
2024-04-17T10:36:09.120Z,7.56
2024-04-17T10:38:44.627Z,7.45
2024-04-17T10:41:17.667Z,7.35
2024-04-17T10:43:49.401Z,7.27
2024-04-17T10:46:23.896Z,7.19
2024-04-17T10:48:57.774Z,7.15
2024-04-17T10:51:30.437Z,7.13
2024-04-17T10:54:03.941Z,7.07
2024-04-17T10:56:35.757Z,6.99
2024-04-17T10:59:07.725Z,6.95
2024-04-17T11:01:39.790Z,6.91
2024-04-17T11:04:13.744Z,6.84
2024-04-17T11:06:45.623Z,6.75
2024-04-17T11:09:17.656Z,6.73
2024-04-17T11:11:51.174Z,6.74
2024-04-17T11:14:23.098Z,6.73
2024-04-17T11:16:54.860Z,6.76
2024-04-17T11:19:27.301Z,6.76
2024-04-17T11:22:01.178Z,6.76
2024-04-17T11:24:33.675Z,6.72
2024-04-17T11:27:11.102Z,6.71
2024-04-17T11:29:48.650Z,6.71
2024-04-17T11:32:21.621Z,6.74
2024-04-17T11:34:53.459Z,6.82
2024-04-17T11:37:28.933Z,6.87
2024-04-17T11:40:02.440Z,6.90
2024-04-17T11:42:34.184Z,6.91
2024-04-17T11:45:07.825Z,6.86
2024-04-17T11:47:39.872Z,6.81
2024-04-17T11:50:13.322Z,6.78
2024-04-17T11:52:45.111Z,6.77
2024-04-17T11:55:19.428Z,6.79
2024-04-17T11:57:51.317Z,6.73
2024-04-17T12:00:23.029Z,6.74
2024-04-17T12:02:54.970Z,6.67
2024-04-17T12:05:27.871Z,6.63
2024-04-17T12:08:00.506Z,6.63
2024-04-17T12:10:32.408Z,6.62
2024-04-17T12:13:04.919Z,6.60
2024-04-17T12:15:36.616Z,6.62
2024-04-17T12:18:09.096Z,6.72
2024-04-17T12:20:40.865Z,6.85
2024-04-17T12:23:19.311Z,6.91
2024-04-17T12:26:09.346Z,6.94
2024-04-17T12:28:41.097Z,7.02
2024-04-17T12:31:13.039Z,7.08
2024-04-17T12:33:45.554Z,7.16
2024-04-17T12:36:17.417Z,7.17
2024-04-17T12:38:50.111Z,7.19
2024-04-17T12:41:21.703Z,7.23
2024-04-17T12:43:53.509Z,7.27
2024-04-17T12:46:25.394Z,7.35
2024-04-17T12:48:57.171Z,7.41
2024-04-17T12:51:29.158Z,7.49
2024-04-17T12:54:00.941Z,7.53
2024-04-17T12:56:33.382Z,7.40
2024-04-17T12:59:06.951Z,7.42
2024-04-17T13:01:38.464Z,7.40
2024-04-17T13:04:12.074Z,7.39
2024-04-17T13:06:44.668Z,7.39
2024-04-17T13:09:17.191Z,7.44
2024-04-17T13:11:49.209Z,7.48
2024-04-17T13:14:20.932Z,7.51
2024-04-17T13:16:52.770Z,7.47
2024-04-17T13:19:24.502Z,7.37
2024-04-17T13:21:56.206Z,7.32
2024-04-17T13:24:27.910Z,7.23
2024-04-17T13:27:01.588Z,7.17
2024-04-17T13:29:34.307Z,7.09
2024-04-17T13:32:06.698Z,7.02
2024-04-17T13:34:38.524Z,7.11
2024-04-17T13:37:10.579Z,7.17
2024-04-17T13:39:42.102Z,7.13
2024-04-17T13:42:14.045Z,7.12
2024-04-17T13:44:46.973Z,7.14
2024-04-17T13:47:18.777Z,7.11
2024-04-17T13:49:51.345Z,7.04
2024-04-17T13:52:28.000Z,6.98
2024-04-17T13:54:59.767Z,6.94
2024-04-17T13:57:31.374Z,6.89
2024-04-17T14:00:03.215Z,6.84
2024-04-17T14:02:43.609Z,6.91
2024-04-17T14:05:15.194Z,6.96
2024-04-17T14:07:46.821Z,6.98
2024-04-17T14:10:19.045Z,6.97
2024-04-17T14:12:50.469Z,6.98
2024-04-17T14:15:22.457Z,6.94
2024-04-17T14:17:54.475Z,6.91
2024-04-17T14:20:26.620Z,6.85
2024-04-17T14:22:58.295Z,6.73
2024-04-17T14:25:30.018Z,6.65
2024-04-17T14:28:03.673Z,6.55
2024-04-17T14:30:35.625Z,6.49
2024-04-17T14:33:07.957Z,6.45
2024-04-17T14:35:41.059Z,6.35
2024-04-17T14:38:12.768Z,6.33
2024-04-17T14:40:44.506Z,6.33
2024-04-17T14:43:16.156Z,6.36
2024-04-17T14:45:55.482Z,6.34
2024-04-17T14:48:28.313Z,6.40
2024-04-17T14:51:07.791Z,6.44
2024-04-17T14:53:39.952Z,6.47
2024-04-17T14:56:12.081Z,6.49
2024-04-17T14:58:43.747Z,6.53
2024-04-17T15:01:17.165Z,6.53
2024-04-17T15:03:49.112Z,6.53
2024-04-17T15:06:21.486Z,6.52
2024-04-17T15:08:53.243Z,6.57
2024-04-17T15:11:25.046Z,6.58
2024-04-17T15:13:56.967Z,6.56
2024-04-17T15:16:29.831Z,6.59
2024-04-17T15:19:01.782Z,6.68
2024-04-17T15:21:33.670Z,6.77
2024-04-17T15:24:05.781Z,6.82
2024-04-17T15:26:37.508Z,6.91
2024-04-17T15:29:09.344Z,6.94
2024-04-17T15:31:41.319Z,7.01
2024-04-17T15:34:13.104Z,7.04
2024-04-17T15:36:46.142Z,7.02
2024-04-17T15:39:23.986Z,6.97
2024-04-17T15:41:55.882Z,6.91
2024-04-17T15:44:27.626Z,6.83
2024-04-17T15:47:00.696Z,6.74
2024-04-17T15:49:34.113Z,6.64
2024-04-17T15:52:06.055Z,6.61
2024-04-17T15:54:37.746Z,6.50
2024-04-17T15:57:09.559Z,6.47
2024-04-17T15:59:43.073Z,6.50
2024-04-17T16:02:14.828Z,6.50
2024-04-17T16:04:50.455Z,6.46
2024-04-17T16:07:25.341Z,6.43
2024-04-17T16:09:57.745Z,6.40
2024-04-17T16:12:31.286Z,6.37
2024-04-17T16:15:07.995Z,6.36
2024-04-17T16:17:41.329Z,6.34
2024-04-17T16:20:14.532Z,6.35
2024-04-17T16:22:48.135Z,6.35
2024-04-17T16:25:21.000Z,6.35
2024-04-17T16:27:53.197Z,6.33
2024-04-17T16:30:27.576Z,6.33
2024-04-17T16:32:59.257Z,6.34
2024-04-17T16:35:31.556Z,6.32
2024-04-17T16:38:06.621Z,6.30
2024-04-17T16:40:38.889Z,6.27
2024-04-17T16:43:11.842Z,6.23
2024-04-17T16:45:44.631Z,6.21
2024-04-17T16:48:16.760Z,6.17
2024-04-17T16:50:57.347Z,6.15
2024-04-17T16:53:28.971Z,6.14
2024-04-17T16:56:02.319Z,6.12
2024-04-17T16:58:40.061Z,6.11
2024-04-17T17:01:43.953Z,6.09
2024-04-17T17:04:18.556Z,6.09
2024-04-17T17:06:56.221Z,6.09
2024-04-17T17:09:30.222Z,6.09
2024-04-17T17:12:05.105Z,6.08
2024-04-17T17:14:37.879Z,6.06
2024-04-17T17:17:13.926Z,6.05
2024-04-17T17:19:49.739Z,6.04
2024-04-17T17:22:22.291Z,6.04
2024-04-17T17:24:56.805Z,6.02
2024-04-17T17:27:29.172Z,6.01
2024-04-17T17:30:00.951Z,6.00
2024-04-17T17:32:33.299Z,5.98
2024-04-17T17:35:07.245Z,5.98
2024-04-17T17:37:39.087Z,5.99
2024-04-17T17:40:14.107Z,5.99
2024-04-17T17:42:49.840Z,6.00
2024-04-17T17:45:22.108Z,5.98
2024-04-17T17:47:53.717Z,5.96
2024-04-17T17:50:25.728Z,5.95
2024-04-17T17:52:58.234Z,5.96
2024-04-17T17:55:29.750Z,5.95
2024-04-17T17:58:01.442Z,5.96
2024-04-17T18:00:33.429Z,5.97
2024-04-17T18:03:06.460Z,5.95
2024-04-17T18:05:38.472Z,5.95
2024-04-17T18:08:10.369Z,5.95
2024-04-17T18:10:42.972Z,5.95
2024-04-17T18:13:14.442Z,5.93
2024-04-17T18:15:56.487Z,5.92
2024-04-17T18:18:29.206Z,5.91
2024-04-17T18:21:09.278Z,5.90
2024-04-17T18:23:42.286Z,5.89
2024-04-17T18:26:17.575Z,5.86
2024-04-17T18:28:51.190Z,5.85
2024-04-17T18:31:23.920Z,5.83
2024-04-17T18:33:55.732Z,5.84
2024-04-17T18:36:30.311Z,5.86
2024-04-17T18:39:02.294Z,5.85
2024-04-17T18:41:36.084Z,5.86
2024-04-17T18:44:10.983Z,5.82
2024-04-17T18:46:42.798Z,5.78
2024-04-17T18:49:14.533Z,5.77
2024-04-17T18:51:46.155Z,5.75
2024-04-17T18:54:17.932Z,5.76
2024-04-17T18:56:49.665Z,5.78
2024-04-17T18:59:21.920Z,5.80
2024-04-17T19:01:54.968Z,5.80
2024-04-17T19:04:26.762Z,5.78
2024-04-17T19:06:58.404Z,5.76
2024-04-17T19:09:30.018Z,5.75
2024-04-17T19:12:01.511Z,5.75
2024-04-17T19:14:33.194Z,5.72
2024-04-17T19:17:06.708Z,5.71
2024-04-17T19:19:39.034Z,5.73
2024-04-17T19:22:10.653Z,5.72
2024-04-17T19:24:42.226Z,5.72
2024-04-17T19:27:13.997Z,5.70
2024-04-17T19:29:54.082Z,5.68
2024-04-17T19:32:33.632Z,5.65
2024-04-17T19:35:05.945Z,5.65
2024-04-17T19:37:42.434Z,5.65
2024-04-17T19:40:14.992Z,5.63
2024-04-17T19:42:54.026Z,5.62
2024-04-17T19:45:30.188Z,5.61
2024-04-17T19:48:02.077Z,5.61
2024-04-17T19:50:33.576Z,5.61
2024-04-17T19:53:05.450Z,5.58
2024-04-17T19:55:40.741Z,5.56
2024-04-17T19:58:12.440Z,5.54
2024-04-17T20:00:44.472Z,5.55
2024-04-17T20:03:16.361Z,5.54
2024-04-17T20:05:55.530Z,5.54
2024-04-17T20:08:27.456Z,5.52
2024-04-17T20:10:59.848Z,5.57
2024-04-17T20:13:32.102Z,5.61
2024-04-17T20:16:05.114Z,5.66
2024-04-17T20:18:38.185Z,5.70
2024-04-17T20:21:11.521Z,5.73
2024-04-17T20:23:44.098Z,5.73
2024-04-17T20:26:16.481Z,5.72
2024-04-17T20:28:57.151Z,5.68
2024-04-17T20:31:32.869Z,5.64
2024-04-17T20:34:04.554Z,5.62
2024-04-17T20:36:36.230Z,5.60
2024-04-17T20:39:08.094Z,5.62
2024-04-17T20:41:39.672Z,5.65
2024-04-17T20:44:11.136Z,5.66
2024-04-17T20:46:42.791Z,5.64
2024-04-17T20:49:14.442Z,5.63
2024-04-17T20:51:46.133Z,5.63
2024-04-17T20:54:17.960Z,5.63
2024-04-17T20:56:49.774Z,5.61
2024-04-17T20:59:21.506Z,5.56
2024-04-17T21:01:53.310Z,5.50
2024-04-17T21:04:24.978Z,5.39
2024-04-17T21:06:57.009Z,5.35
2024-04-17T21:09:28.775Z,5.31
2024-04-17T21:12:00.292Z,5.30
2024-04-17T21:14:32.110Z,5.25
2024-04-17T21:17:04.250Z,5.19
2024-04-17T21:19:35.723Z,5.13
2024-04-17T21:22:07.639Z,5.08
2024-04-17T21:24:39.471Z,5.04
2024-04-17T21:27:11.186Z,5.02
2024-04-17T21:29:42.971Z,4.99
2024-04-17T21:32:14.560Z,4.95
2024-04-17T21:34:46.312Z,4.90
2024-04-17T21:37:19.312Z,4.85
2024-04-17T21:39:54.856Z,4.72
2024-04-17T21:42:26.573Z,4.65
2024-04-17T21:44:58.338Z,4.61
2024-04-17T21:47:30.319Z,4.60
2024-04-17T21:50:02.268Z,4.61
2024-04-17T21:52:33.952Z,4.55
2024-04-17T21:55:05.790Z,4.53
2024-04-17T21:57:38.149Z,4.49
2024-04-17T22:00:11.819Z,4.43
2024-04-17T22:02:43.428Z,4.36
2024-04-17T22:05:15.228Z,4.30
2024-04-17T22:07:47.039Z,4.22
2024-04-17T22:10:18.786Z,4.14
2024-04-17T22:12:50.428Z,4.06
2024-04-17T22:15:21.965Z,3.98
2024-04-17T22:17:53.571Z,3.89
2024-04-17T22:20:25.288Z,3.83
2024-04-17T22:22:56.909Z,3.80
2024-04-17T22:25:28.519Z,3.80
2024-04-17T22:28:00.365Z,3.79
2024-04-17T22:30:32.128Z,3.73
2024-04-17T22:33:04.142Z,3.70
2024-04-17T22:35:37.484Z,3.65
2024-04-17T22:38:09.023Z,3.56
2024-04-17T22:40:40.618Z,3.55
2024-04-17T22:43:12.281Z,3.42
2024-04-17T22:45:44.027Z,3.32
2024-04-17T22:48:15.708Z,3.26
2024-04-17T22:50:47.443Z,3.20
2024-04-17T22:53:19.203Z,3.18
2024-04-17T22:55:50.791Z,3.16
2024-04-17T22:58:22.320Z,3.15
2024-04-17T23:00:53.872Z,3.12
2024-04-17T23:03:25.882Z,3.06
2024-04-17T23:05:57.595Z,3.02
2024-04-17T23:08:29.168Z,2.99
2024-04-17T23:11:01.244Z,2.97
2024-04-17T23:13:33.387Z,2.96
2024-04-17T23:16:05.041Z,2.97
2024-04-17T23:18:36.500Z,2.97
2024-04-17T23:21:08.062Z,2.92
2024-04-17T23:23:39.724Z,2.88
2024-04-17T23:26:11.336Z,2.77
2024-04-17T23:28:47.874Z,2.71
2024-04-17T23:31:19.487Z,2.62
2024-04-17T23:33:51.211Z,2.61
2024-04-17T23:36:23.352Z,2.64
2024-04-17T23:38:54.974Z,2.65
2024-04-17T23:41:26.562Z,2.64
2024-04-17T23:43:58.254Z,2.65
2024-04-17T23:46:29.840Z,2.65
2024-04-17T23:49:01.324Z,2.64
2024-04-17T23:51:33.277Z,2.63
2024-04-17T23:54:04.921Z,2.61
2024-04-17T23:56:36.629Z,2.61
2024-04-17T23:59:08.404Z,2.62
